Time;durP1;ratioP1;P1;durP2;ratioP2;P2;SDS_P1;SDS_P2;PMS_P1;PMS_P2;Temp;Humidity;BMP_temperature;BMP_pressure;BME280_temperature;BME280_humidity;BME280_pressure;Samples;Min_cycle;Max_cycle;Signal;HPM_P1;HPM_P2
2022/04/26 03:38:25;;;;;;;24.95;11.90;;;8.00;99.90;;;;;;5011067;28;20320;-38
2022/04/26 03:40:52;;;;;;;21.85;12.02;;;8.00;99.90;;;;;;5008366;28;20518;-40
2022/04/26 03:43:18;;;;;;;22.35;11.20;;;8.00;99.90;;;;;;5011727;28;20379;-38
2022/04/26 03:45:45;;;;;;;22.23;12.63;;;8.00;99.90;;;;;;5007142;28;20133;-41
2022/04/26 03:48:12;;;;;;;20.40;12.55;;;8.00;99.90;;;;;;5006236;28;20129;-38
2022/04/26 03:50:38;;;;;;;21.88;12.25;;;8.00;99.90;;;;;;5008107;28;20038;-40
2022/04/26 03:53:06;;;;;;;26.80;12.30;;;8.00;99.90;;;;;;5024606;28;20472;-41
2022/04/26 03:55:33;;;;;;;26.33;12.10;;;7.90;99.90;;;;;;5002077;28;20049;-40
2022/04/26 03:58:00;;;;;;;26.95;12.60;;;7.90;99.90;;;;;;5012014;28;20053;-41
2022/04/26 04:00:27;;;;;;;23.50;11.90;;;7.90;99.90;;;;;;5005436;28;20405;-39
2022/04/26 04:02:53;;;;;;;26.15;11.45;;;7.90;99.90;;;;;;5001022;28;20130;-40
2022/04/26 04:05:22;;;;;;;25.70;11.38;;;7.80;99.90;;;;;;5008219;28;20054;-40
2022/04/26 04:07:48;;;;;;;22.55;10.98;;;7.80;99.90;;;;;;5008843;28;20401;-40
2022/04/26 04:10:17;;;;;;;24.27;12.18;;;7.70;99.90;;;;;;5010684;28;20060;-41
2022/04/26 04:12:43;;;;;;;27.58;11.82;;;7.70;99.90;;;;;;5006079;28;20132;-40
2022/04/26 04:15:10;;;;;;;29.95;11.63;;;7.70;99.90;;;;;;5005884;28;20774;-40
2022/04/26 04:17:37;;;;;;;26.55;11.07;;;7.70;99.90;;;;;;5006808;28;20053;-40
2022/04/26 04:20:04;;;;;;;24.20;10.25;;;7.70;99.90;;;;;;5011598;28;20073;-41
2022/04/26 04:22:31;;;;;;;22.50;10.55;;;7.70;99.90;;;;;;5002869;28;20042;-36
2022/04/26 04:24:58;;;;;;;28.67;12.02;;;7.70;99.90;;;;;;5003569;28;20046;-41
2022/04/26 04:27:26;;;;;;;27.30;11.35;;;7.70;99.90;;;;;;5011399;28;20064;-39
2022/04/26 04:29:53;;;;;;;23.92;11.73;;;7.70;99.90;;;;;;4997199;28;20046;-41
2022/04/26 04:32:19;;;;;;;23.23;11.70;;;7.60;99.90;;;;;;4993537;28;20074;-42
2022/04/26 04:34:46;;;;;;;23.52;11.75;;;7.70;99.90;;;;;;5010225;28;20058;-39
2022/04/26 04:37:13;;;;;;;23.92;11.05;;;7.70;99.90;;;;;;5009414;28;20052;-40
2022/04/26 04:39:39;;;;;;;29.13;11.40;;;7.60;99.90;;;;;;4999100;28;20060;-40
2022/04/26 04:42:07;;;;;;;24.13;12.30;;;7.60;99.90;;;;;;5005142;28;20061;-38
2022/04/26 04:44:35;;;;;;;26.58;12.60;;;7.70;99.90;;;;;;5003293;28;20510;-39
2022/04/26 04:47:02;;;;;;;26.10;10.77;;;7.70;99.90;;;;;;5006746;28;20133;-41
2022/04/26 04:49:29;;;;;;;23.55;11.05;;;7.70;99.90;;;;;;5009302;28;20461;-39
2022/04/26 04:51:56;;;;;;;28.77;11.73;;;7.60;99.90;;;;;;5001648;28;20409;-40
2022/04/26 04:54:22;;;;;;;19.67;9.95;;;7.60;99.90;;;;;;5005062;28;20057;-40
2022/04/26 04:56:49;;;;;;;24.15;11.05;;;7.70;99.90;;;;;;5012848;28;20506;-41
2022/04/26 04:59:16;;;;;;;24.05;10.23;;;7.70;99.90;;;;;;5007512;28;20054;-40
2022/04/26 05:01:44;;;;;;;23.77;9.55;;;7.70;99.90;;;;;;5014625;28;20129;-39
2022/04/26 05:04:11;;;;;;;24.85;9.80;;;7.70;99.90;;;;;;5015628;28;20075;-41
2022/04/26 05:06:37;;;;;;;22.50;9.77;;;7.70;99.90;;;;;;5014215;28;20049;-42
2022/04/26 05:09:04;;;;;;;23.58;9.43;;;7.70;99.90;;;;;;5007389;28;20045;-40
2022/04/26 05:11:31;;;;;;;32.45;10.30;;;7.80;99.90;;;;;;5012474;28;20156;-39
2022/04/26 05:13:57;;;;;;;28.10;10.45;;;7.80;99.90;;;;;;5006256;28;20508;-41
2022/04/26 05:16:24;;;;;;;22.77;9.10;;;7.80;99.90;;;;;;5006854;28;20073;-42
2022/04/26 05:18:52;;;;;;;24.88;8.93;;;7.80;99.90;;;;;;5020618;28;20077;-40
2022/04/26 05:21:19;;;;;;;17.92;8.27;;;7.80;99.90;;;;;;4997558;28;20376;-38
2022/04/26 05:26:30;;;;;;;24.20;8.35;;;7.90;99.90;;;;;;5029147;28;20058;-39
2022/04/26 05:28:57;;;;;;;20.55;8.57;;;7.80;99.90;;;;;;5012032;28;20100;-40
2022/04/26 05:31:23;;;;;;;23.50;7.70;;;7.90;99.90;;;;;;5009778;28;20069;-41
2022/04/26 05:33:51;;;;;;;18.20;8.07;;;7.90;99.90;;;;;;5010666;28;20141;-40
2022/04/26 05:36:18;;;;;;;20.83;8.07;;;7.90;99.90;;;;;;5014130;28;20053;-40
2022/04/26 05:38:45;;;;;;;22.85;7.97;;;8.00;99.90;;;;;;5011053;28;20060;-40
2022/04/26 05:41:13;;;;;;;21.92;7.35;;;8.00;99.90;;;;;;5006504;28;20052;-42
2022/04/26 05:43:40;;;;;;;16.70;7.13;;;8.00;99.90;;;;;;5010400;28;20046;-41
2022/04/26 05:46:10;;;;;;;20.48;6.88;;;8.10;99.90;;;;;;5011808;28;20061;-41
2022/04/26 05:48:37;;;;;;;17.65;6.90;;;8.10;99.90;;;;;;4972077;22;20402;-41
2022/04/26 05:51:05;;;;;;;24.63;7.25;;;8.20;99.90;;;;;;5029083;28;20053;-40
2022/04/26 05:53:32;;;;;;;21.27;6.00;;;8.30;99.90;;;;;;5031232;28;20050;-39
2022/04/26 05:55:59;;;;;;;20.05;7.35;;;8.30;99.90;;;;;;5030549;28;20049;-38
2022/04/26 05:58:25;;;;;;;23.50;8.10;;;8.40;99.90;;;;;;5025373;28;20068;-38
2022/04/26 06:00:52;;;;;;;20.98;6.82;;;8.30;99.90;;;;;;5010698;28;20049;-41
2022/04/26 06:03:19;;;;;;;15.13;6.00;;;8.30;99.90;;;;;;5032747;28;20061;-41
2022/04/26 06:05:45;;;;;;;17.73;6.35;;;8.40;99.90;;;;;;5027507;28;20052;-38
2022/04/26 06:08:13;;;;;;;21.08;6.45;;;8.40;99.90;;;;;;5041357;28;20498;-40
2022/04/26 06:10:40;;;;;;;16.27;5.90;;;8.40;99.90;;;;;;5019783;28;20133;-39
2022/04/26 06:13:08;;;;;;;14.52;5.47;;;8.50;99.90;;;;;;5029450;28;20041;-40
2022/04/26 06:15:34;;;;;;;19.75;5.32;;;8.60;99.90;;;;;;5027689;28;20131;-37
2022/04/26 06:18:01;;;;;;;18.45;5.80;;;8.60;99.90;;;;;;5014850;28;20067;-41
2022/04/26 06:20:29;;;;;;;17.75;5.05;;;8.60;99.90;;;;;;5001143;28;20401;-40
2022/04/26 06:22:56;;;;;;;18.42;5.57;;;8.70;99.90;;;;;;5019862;28;20065;-40
2022/04/26 06:25:24;;;;;;;19.58;5.82;;;8.70;99.90;;;;;;5015516;28;20056;-40
2022/04/26 06:27:50;;;;;;;16.85;5.07;;;8.70;99.90;;;;;;5013166;28;20067;-39
2022/04/26 06:30:17;;;;;;;17.13;4.78;;;8.80;99.90;;;;;;5023678;28;20053;-41
2022/04/26 06:32:44;;;;;;;12.25;4.85;;;8.90;99.90;;;;;;5025129;28;20156;-40
2022/04/26 06:35:10;;;;;;;15.70;5.20;;;8.80;99.90;;;;;;5007174;28;20050;-42
2022/04/26 06:37:37;;;;;;;22.10;5.05;;;8.80;99.90;;;;;;5031327;28;20049;-37
2022/04/26 06:40:05;;;;;;;16.70;5.45;;;8.80;99.90;;;;;;5022939;28;20045;-41
2022/04/26 06:42:33;;;;;;;12.88;5.20;;;8.80;99.90;;;;;;5010774;28;20064;-40
2022/04/26 06:44:59;;;;;;;17.70;5.00;;;8.80;99.90;;;;;;5014238;28;20949;-38
2022/04/26 06:47:26;;;;;;;15.02;5.40;;;8.80;99.90;;;;;;5033203;28;20054;-42
2022/04/26 06:49:53;;;;;;;21.55;5.80;;;8.80;99.90;;;;;;5015480;28;20055;-41
2022/04/26 06:52:19;;;;;;;16.05;4.72;;;8.90;99.90;;;;;;5019049;28;20120;-38
2022/04/26 06:54:46;;;;;;;15.45;5.57;;;9.00;99.90;;;;;;5010042;28;20151;-39
2022/04/26 06:57:13;;;;;;;18.17;5.15;;;9.10;99.90;;;;;;5032771;28;20100;-39
2022/04/26 06:59:41;;;;;;;15.52;5.35;;;9.30;99.90;;;;;;5019967;28;20091;-39
2022/04/26 07:02:08;;;;;;;19.88;5.20;;;9.40;99.90;;;;;;5027418;28;20049;-41
2022/04/26 07:04:35;;;;;;;15.88;5.53;;;9.40;99.90;;;;;;5029607;28;20058;-41
2022/04/26 07:07:01;;;;;;;15.63;5.13;;;9.50;99.90;;;;;;5026055;28;20074;-40
2022/04/26 07:09:28;;;;;;;18.42;5.38;;;9.40;99.90;;;;;;5009444;28;20079;-41
2022/04/26 07:11:55;;;;;;;13.50;4.65;;;9.40;99.90;;;;;;5003333;28;20053;-41
2022/04/26 07:14:22;;;;;;;14.38;5.20;;;9.40;99.90;;;;;;5000436;28;20053;-38
2022/04/26 07:16:50;;;;;;;15.90;4.63;;;9.40;99.90;;;;;;5014733;28;20055;-37
2022/04/26 07:19:17;;;;;;;13.68;4.47;;;9.60;99.90;;;;;;5024962;28;20042;-42
2022/04/26 07:21:44;;;;;;;14.80;4.50;;;9.70;99.90;;;;;;5013787;28;20056;-40
2022/04/26 07:24:11;;;;;;;12.57;4.15;;;9.80;99.90;;;;;;5022683;28;20092;-41
2022/04/26 07:26:38;;;;;;;10.35;3.72;;;9.80;99.90;;;;;;5032396;28;20049;-43
2022/04/26 07:29:05;;;;;;;14.07;3.83;;;9.90;99.90;;;;;;5032170;28;20486;-41
2022/04/26 07:31:32;;;;;;;14.23;4.10;;;9.90;99.90;;;;;;5014886;28;20133;-41
2022/04/26 07:36:44;;;;;;;8.38;3.38;;;10.00;99.90;;;;;;5016217;28;20045;-41
2022/04/26 07:39:11;;;;;;;11.98;3.17;;;10.20;99.90;;;;;;5020365;28;20052;-41
2022/04/26 07:41:38;;;;;;;14.40;3.97;;;10.40;99.90;;;;;;5029804;28;20557;-38
2022/04/26 07:44:05;;;;;;;16.73;3.83;;;10.60;99.90;;;;;;5023875;28;20042;-42
2022/04/26 07:46:31;;;;;;;12.60;3.60;;;10.70;99.90;;;;;;5012909;28;20071;-41
2022/04/26 07:48:59;;;;;;;11.18;4.05;;;10.80;99.90;;;;;;5025775;28;20072;-40
2022/04/26 07:51:26;;;;;;;8.32;3.28;;;10.80;99.90;;;;;;5003806;28;20136;-42
2022/04/26 07:53:53;;;;;;;9.15;3.60;;;11.00;99.90;;;;;;5024818;28;20096;-42
2022/04/26 07:56:19;;;;;;;9.57;3.38;;;11.10;99.90;;;;;;5029349;28;20037;-40
2022/04/26 07:58:46;;;;;;;11.68;3.40;;;11.30;99.90;;;;;;5024012;28;20055;-42
2022/04/26 08:01:13;;;;;;;11.07;3.13;;;11.30;99.90;;;;;;5007756;28;20101;-40
2022/04/26 08:03:39;;;;;;;8.05;3.20;;;11.30;99.60;;;;;;5027769;28;20045;-39
2022/04/26 08:06:07;;;;;;;9.40;2.97;;;11.30;99.60;;;;;;5028220;28;20474;-41
2022/04/26 08:08:34;;;;;;;12.85;3.05;;;11.30;99.60;;;;;;5013251;28;20045;-40
2022/04/26 08:11:01;;;;;;;13.10;4.07;;;11.30;99.30;;;;;;5012062;28;20057;-41
2022/04/26 08:13:28;;;;;;;9.65;3.35;;;11.20;98.90;;;;;;5013823;28;20056;-42
2022/04/26 08:15:55;;;;;;;9.90;2.90;;;11.20;99.10;;;;;;5026507;28;20506;-42
2022/04/26 08:18:22;;;;;;;10.75;3.20;;;11.40;99.50;;;;;;5010957;28;20173;-42
2022/04/26 08:20:49;;;;;;;9.13;3.38;;;11.60;98.90;;;;;;5020079;28;20089;-43
2022/04/26 08:23:17;;;;;;;8.52;3.25;;;11.60;98.50;;;;;;5021122;28;20041;-42
2022/04/26 08:28:28;;;;;;;7.68;3.35;;;11.40;98.50;;;;;;5013520;28;20057;-41
2022/04/26 08:30:56;;;;;;;10.35;3.20;;;11.30;98.40;;;;;;5005615;28;20473;-41
2022/04/26 08:33:22;;;;;;;6.93;2.75;;;11.20;98.30;;;;;;5008592;28;20547;-42
2022/04/26 08:35:49;;;;;;;10.95;3.17;;;11.20;98.30;;;;;;5003807;28;20072;-42
2022/04/26 08:38:17;;;;;;;7.72;3.03;;;11.10;98.10;;;;;;5022665;28;20108;-43
2022/04/26 08:40:44;;;;;;;12.02;3.28;;;11.10;98.00;;;;;;5007109;28;20050;-40
2022/04/26 08:43:10;;;;;;;10.30;3.30;;;11.30;98.10;;;;;;5026335;28;20055;-41
2022/04/26 08:45:39;;;;;;;6.35;2.88;;;11.70;98.00;;;;;;5012712;28;20049;-40
2022/04/26 08:51:04;;;;;;;11.15;3.65;;;12.30;96.60;;;;;;5032320;28;20425;-41
2022/04/26 08:53:33;;;;;;;11.23;3.20;;;12.60;95.90;;;;;;5021188;28;20050;-41
2022/04/26 08:56:01;;;;;;;12.43;3.47;;;12.80;95.30;;;;;;5030374;28;20052;-41
2022/04/26 08:58:31;;;;;;;10.30;3.55;;;12.70;94.90;;;;;;5004001;28;20053;-39
2022/04/26 09:01:09;;;;;;;11.75;3.35;;;12.60;95.00;;;;;;5012721;28;20057;-42
2022/04/26 09:03:36;;;;;;;13.45;3.92;;;12.50;95.10;;;;;;5013744;28;20049;-43
2022/04/26 09:06:05;;;;;;;9.90;3.92;;;12.30;95.10;;;;;;5022792;28;20124;-41
2022/04/26 09:08:33;;;;;;;11.25;3.65;;;12.20;95.40;;;;;;5027751;28;20045;-42
2022/04/26 09:11:00;;;;;;;10.30;3.33;;;12.10;95.50;;;;;;5022566;28;20132;-43
2022/04/26 09:13:27;;;;;;;10.75;3.67;;;12.10;95.60;;;;;;5016918;28;20049;-42
2022/04/26 09:15:55;;;;;;;10.25;4.03;;;12.20;95.60;;;;;;5020334;28;20124;-43
2022/04/26 09:18:24;;;;;;;14.57;3.92;;;12.30;95.50;;;;;;5025942;28;20477;-42
2022/04/26 09:20:53;;;;;;;6.97;3.50;;;12.30;95.30;;;;;;5025890;28;20069;-42
2022/04/26 09:23:20;;;;;;;10.95;3.45;;;12.20;94.90;;;;;;5025193;28;20466;-43
2022/04/26 09:25:51;;;;;;;10.45;3.05;;;12.20;94.40;;;;;;5019754;28;20123;-41
2022/04/26 09:28:26;;;;;;;8.95;3.58;;;12.20;94.00;;;;;;5021621;28;20056;-43
2022/04/26 09:30:53;;;;;;;8.38;3.20;;;12.30;93.30;;;;;;5028910;28;20498;-43
2022/04/26 09:33:31;;;;;;;6.18;2.88;;;12.60;93.80;;;;;;5023859;28;20044;-43
2022/04/26 09:36:00;;;;;;;7.68;3.15;;;13.00;93.50;;;;;;5026048;28;20050;-42
2022/04/26 09:38:31;;;;;;;8.30;3.03;;;13.40;92.60;;;;;;5024740;28;20057;-43
2022/04/26 09:41:01;;;;;;;7.13;2.97;;;13.70;92.00;;;;;;5010464;28;20556;-41
2022/04/26 09:43:28;;;;;;;10.25;3.40;;;13.70;91.00;;;;;;5029363;28;20050;-42
2022/04/26 09:45:56;;;;;;;7.30;3.13;;;13.90;91.10;;;;;;5030776;28;20054;-42
2022/04/26 09:48:25;;;;;;;6.40;3.15;;;14.30;91.30;;;;;;5004761;28;20053;-43
2022/04/26 09:50:52;;;;;;;10.27;3.25;;;14.60;90.00;;;;;;5003361;28;20063;-42
2022/04/26 09:53:19;;;;;;;8.77;2.90;;;14.50;88.70;;;;;;5030512;28;20440;-43
2022/04/26 09:55:45;;;;;;;4.93;2.70;;;14.40;86.90;;;;;;5024866;28;20076;-44
2022/04/26 09:58:14;;;;;;;7.80;3.22;;;14.40;86.30;;;;;;5026238;28;20041;-43
2022/04/26 10:00:42;;;;;;;7.15;2.92;;;14.60;87.50;;;;;;5004086;28;20058;-44
2022/04/26 10:03:10;;;;;;;9.55;2.97;;;14.60;86.60;;;;;;5012924;28;20061;-44
2022/04/26 10:05:37;;;;;;;5.53;2.92;;;14.40;86.50;;;;;;5035414;28;20136;-43
2022/04/26 10:08:04;;;;;;;7.43;2.83;;;14.30;87.30;;;;;;5005672;28;20049;-44
2022/04/26 10:10:31;;;;;;;8.40;2.97;;;14.40;86.10;;;;;;5016099;28;20474;-43
2022/04/26 10:15:44;;;;;;;6.70;2.70;;;14.60;84.10;;;;;;5019960;28;20046;-43
2022/04/26 10:18:29;;;;;;;6.55;3.00;;;14.90;85.00;;;;;;5031962;28;20041;-44
2022/04/26 10:20:56;;;;;;;8.45;3.10;;;15.10;81.70;;;;;;5019813;28;20477;-43
2022/04/26 10:23:23;;;;;;;7.00;2.60;;;15.10;82.20;;;;;;5005695;28;20057;-43
2022/04/26 10:26:24;;;;;;;5.53;2.70;;;15.20;83.30;;;;;;5020184;28;20046;-43
2022/04/26 10:28:52;;;;;;;7.15;3.15;;;15.50;82.20;;;;;;5022348;28;20046;-43
2022/04/26 10:31:21;;;;;;;5.22;2.88;;;15.30;81.20;;;;;;5015439;28;20050;-43
2022/04/26 10:33:48;;;;;;;6.72;3.50;;;15.20;81.20;;;;;;5026608;28;20414;-43
2022/04/26 10:36:35;;;;;;;7.80;2.80;;;15.10;81.10;;;;;;5010218;28;20037;-42
2022/04/26 10:39:27;;;;;;;7.80;2.75;;;15.00;78.80;;;;;;5021512;28;20085;-43
2022/04/26 10:41:54;;;;;;;7.18;2.88;;;15.00;79.90;;;;;;5015810;28;20049;-43
2022/04/26 10:44:39;;;;;;;7.50;2.92;;;15.20;81.10;;;;;;5029072;28;20049;-42
2022/04/26 10:47:35;;;;;;;5.90;2.60;;;15.50;78.20;;;;;;5013535;28;20047;-40
2022/04/26 10:50:02;;;;;;;7.97;3.15;;;15.30;75.50;;;;;;5018263;28;20046;-43
2022/04/26 10:52:43;;;;;;;8.38;3.03;;;15.20;78.60;;;;;;5002697;28;20060;-43
2022/04/26 10:55:12;;;;;;;10.57;3.28;;;15.30;76.90;;;;;;5018161;28;20096;-42
2022/04/26 10:57:40;;;;;;;9.07;2.63;;;15.40;77.20;;;;;;5007802;28;20061;-42
2022/04/26 11:00:08;;;;;;;7.82;2.33;;;15.60;76.90;;;;;;5014592;28;20072;-43
2022/04/26 11:02:36;;;;;;;5.35;2.38;;;15.70;76.10;;;;;;5014682;28;20046;-41
2022/04/26 11:05:04;;;;;;;5.18;2.28;;;15.70;74.60;;;;;;5017826;28;20046;-43
2022/04/26 11:07:31;;;;;;;5.88;3.08;;;15.80;72.20;;;;;;5021911;28;20053;-43
2022/04/26 11:09:58;;;;;;;4.60;2.47;;;15.80;71.90;;;;;;5024116;28;20128;-43
2022/04/26 11:12:25;;;;;;;13.18;2.45;;;15.90;72.60;;;;;;5007111;28;20057;-43
2022/04/26 11:14:53;;;;;;;9.18;2.70;;;16.20;72.60;;;;;;5014552;28;20073;-43
2022/04/26 11:17:21;;;;;;;6.40;2.45;;;16.40;72.80;;;;;;5010800;28;20048;-43
2022/04/26 11:19:50;;;;;;;5.70;2.20;;;16.60;71.70;;;;;;5006674;28;20469;-42
2022/04/26 11:22:17;;;;;;;4.50;2.45;;;16.70;69.50;;;;;;5032332;28;20522;-42
2022/04/26 11:30:17;;;;;;;5.60;2.35;;;16.30;71.90;;;;;;5029063;28;20041;-42
2022/04/26 11:32:44;;;;;;;7.78;2.13;;;16.70;72.00;;;;;;5027240;28;20049;-43
2022/04/26 11:35:12;;;;;;;5.95;2.60;;;17.10;69.60;;;;;;5030277;28;20485;-42
2022/04/26 11:37:45;;;;;;;9.48;2.78;;;17.20;67.60;;;;;;5031764;28;20045;-43
2022/04/26 11:40:12;;;;;;;6.63;2.38;;;17.20;67.00;;;;;;5031277;28;20456;-43
2022/04/26 11:42:38;;;;;;;9.43;2.70;;;17.00;67.80;;;;;;5009680;28;20060;-43
2022/04/26 11:45:06;;;;;;;8.13;2.45;;;16.80;67.70;;;;;;5028273;28;20512;-42
2022/04/26 11:47:40;;;;;;;8.43;2.28;;;16.70;66.70;;;;;;5016427;28;20402;-41
2022/04/26 11:50:12;;;;;;;13.30;2.30;;;16.50;66.50;;;;;;5029083;28;20056;-42
2022/04/26 11:52:39;;;;;;;6.07;2.50;;;16.40;66.80;;;;;;5021324;28;20238;-42
2022/04/26 11:55:06;;;;;;;6.85;2.30;;;16.50;67.80;;;;;;5025746;28;20045;-41
2022/04/26 11:57:33;;;;;;;5.05;2.53;;;16.80;67.90;;;;;;4998934;28;20050;-42
2022/04/26 12:00:00;;;;;;;3.90;2.22;;;17.10;67.50;;;;;;5016362;28;20138;-42
2022/04/26 12:02:29;;;;;;;5.13;2.33;;;17.60;66.90;;;;;;5022157;28;20051;-42
2022/04/26 12:04:56;;;;;;;5.38;2.35;;;17.90;65.00;;;;;;5029358;28;20055;-42
2022/04/26 12:07:25;;;;;;;5.28;2.30;;;17.80;63.70;;;;;;5014364;28;20502;-42
2022/04/26 12:09:52;;;;;;;4.80;2.20;;;17.70;64.40;;;;;;5023409;28;20405;-41
2022/04/26 12:12:20;;;;;;;14.80;2.40;;;17.50;63.30;;;;;;5029382;28;20516;-42
2022/04/26 12:14:46;;;;;;;5.40;2.17;;;17.10;64.50;;;;;;5013007;28;20053;-42
2022/04/26 12:17:18;;;;;;;4.60;1.90;;;16.90;64.80;;;;;;5029896;28;20145;-43
2022/04/26 12:19:50;;;;;;;5.95;2.33;;;16.90;63.60;;;;;;5001573;28;20050;-42
2022/04/26 12:22:16;;;;;;;7.15;1.90;;;16.80;63.30;;;;;;5012352;28;20057;-42
2022/04/26 12:24:47;;;;;;;8.32;2.42;;;17.00;63.20;;;;;;5005925;28;20261;-43
2022/04/26 12:27:14;;;;;;;6.60;2.30;;;17.30;63.10;;;;;;5028863;28;20386;-44
2022/04/26 12:29:43;;;;;;;4.60;2.30;;;17.50;62.60;;;;;;5013129;28;20056;-44
2022/04/26 12:32:12;;;;;;;8.82;2.60;;;17.60;62.70;;;;;;5024800;28;20060;-42
2022/04/26 12:34:47;;;;;;;8.23;2.60;;;17.40;61.30;;;;;;5017396;28;20137;-43
2022/04/26 12:37:17;;;;;;;8.93;2.75;;;17.00;61.10;;;;;;5020022;28;20053;-43
2022/04/26 12:39:45;;;;;;;3.70;2.20;;;17.00;63.30;;;;;;5027122;28;20057;-44
2022/04/26 12:42:14;;;;;;;10.75;2.67;;;17.30;62.80;;;;;;5029231;28;20052;-43
2022/04/26 12:44:51;;;;;;;6.93;2.25;;;17.50;60.90;;;;;;5028656;28;20053;-43
2022/04/26 12:52:48;;;;;;;4.30;2.53;;;17.50;59.60;;;;;;5025135;28;20409;-43
2022/04/26 12:55:23;;;;;;;3.90;2.30;;;17.30;58.90;;;;;;5022419;28;20483;-43
2022/04/26 12:57:52;;;;;;;7.07;2.88;;;17.30;58.50;;;;;;5025409;28;20049;-43
2022/04/26 13:00:19;;;;;;;6.00;2.60;;;17.30;60.10;;;;;;5029029;28;20055;-43
2022/04/26 13:02:47;;;;;;;6.43;2.38;;;17.40;59.20;;;;;;5023809;28;20053;-43
2022/04/26 13:05:15;;;;;;;4.32;2.00;;;17.50;61.10;;;;;;5024021;28;20069;-43
2022/04/26 13:07:42;;;;;;;5.22;2.63;;;17.60;62.30;;;;;;5006633;28;20053;-43
2022/04/26 13:10:09;;;;;;;4.63;2.10;;;17.80;61.50;;;;;;5010338;28;20034;-43
2022/04/26 13:12:35;;;;;;;4.35;2.20;;;18.20;61.60;;;;;;5006461;28;20477;-43
2022/04/26 13:15:04;;;;;;;5.47;2.10;;;18.60;59.60;;;;;;5011292;28;20041;-42
2022/04/26 13:17:30;;;;;;;6.45;2.25;;;18.90;59.70;;;;;;5030935;28;20057;-43
2022/04/26 13:19:57;;;;;;;6.10;2.00;;;19.00;57.40;;;;;;5026529;28;20408;-43
2022/04/26 13:22:24;;;;;;;7.50;2.53;;;18.90;59.10;;;;;;5034892;28;20053;-43
2022/04/26 13:24:51;;;;;;;10.02;2.70;;;18.80;58.80;;;;;;5029336;28;20052;-43
2022/04/26 13:27:19;;;;;;;9.38;2.53;;;18.90;58.30;;;;;;5041940;28;20045;-44
2022/04/26 13:29:46;;;;;;;6.70;2.42;;;18.90;56.00;;;;;;5039029;28;20056;-43
2022/04/26 13:32:14;;;;;;;6.68;2.05;;;18.60;55.40;;;;;;5026164;28;20133;-43
2022/04/26 13:34:41;;;;;;;7.20;2.53;;;18.30;56.80;;;;;;5004832;28;20072;-43
2022/04/26 13:37:08;;;;;;;6.07;2.33;;;18.10;56.30;;;;;;5018276;28;20085;-42
2022/04/26 13:39:35;;;;;;;7.88;2.33;;;18.00;56.10;;;;;;5030302;28;20107;-43
2022/04/26 13:42:02;;;;;;;7.00;2.85;;;18.10;57.00;;;;;;5016914;28;20049;-43
2022/04/26 13:44:29;;;;;;;6.65;2.42;;;18.40;56.20;;;;;;5031177;28;20406;-43
2022/04/26 13:46:57;;;;;;;4.20;1.90;;;18.50;55.00;;;;;;5032527;28;20053;-43
2022/04/26 13:49:25;;;;;;;7.93;2.47;;;18.60;56.60;;;;;;5031645;28;20136;-42
2022/04/26 13:51:52;;;;;;;7.25;2.25;;;18.80;55.90;;;;;;5033290;28;20069;-43
2022/04/26 13:54:19;;;;;;;5.20;2.33;;;18.90;56.00;;;;;;5031087;28;20045;-43
2022/04/26 13:56:49;;;;;;;3.97;2.13;;;19.20;55.70;;;;;;5034202;28;20410;-43
2022/04/26 13:59:16;;;;;;;4.15;1.88;;;19.50;55.50;;;;;;5012372;28;20057;-43
2022/04/26 14:01:43;;;;;;;5.47;2.47;;;19.60;54.60;;;;;;5029566;28;20052;-43
2022/04/26 14:04:09;;;;;;;6.47;2.25;;;19.80;54.20;;;;;;5012355;28;20054;-43
2022/04/26 14:06:37;;;;;;;5.50;2.40;;;19.90;53.80;;;;;;5040087;28;20048;-43
2022/04/26 14:09:04;;;;;;;8.32;2.88;;;20.10;54.50;;;;;;5030924;28;20045;-43
2022/04/26 14:11:31;;;;;;;9.30;3.03;;;19.90;52.60;;;;;;5028936;28;20442;-44
2022/04/26 14:22:13;;;;;;;4.60;2.65;;;20.10;55.90;;;;;;5005195;28;20049;-44
2022/04/26 14:24:39;;;;;;;6.63;2.30;;;20.20;54.70;;;;;;5023060;28;20504;-44
2022/04/26 14:27:06;;;;;;;4.82;2.60;;;20.10;54.90;;;;;;5028995;28;20049;-44
2022/04/26 14:29:33;;;;;;;7.40;2.20;;;20.00;52.60;;;;;;5020629;28;20075;-43
2022/04/26 14:32:00;;;;;;;6.25;2.53;;;19.70;52.20;;;;;;5026656;28;20050;-42
2022/04/26 14:34:27;;;;;;;8.10;2.50;;;19.30;52.60;;;;;;5018921;28;20061;-42
2022/04/26 14:36:54;;;;;;;6.13;2.50;;;18.90;52.80;;;;;;5028763;28;20049;-43
2022/04/26 14:39:22;;;;;;;5.35;2.40;;;18.50;53.70;;;;;;5028814;28;20053;-43
2022/04/26 14:41:48;;;;;;;4.82;2.30;;;18.10;56.00;;;;;;5023851;28;20065;-41
2022/04/26 14:44:15;;;;;;;4.93;2.22;;;17.90;56.80;;;;;;5023383;28;20457;-42
2022/04/26 14:46:42;;;;;;;7.68;2.35;;;17.80;56.50;;;;;;5008484;28;20054;-42
2022/04/26 14:49:09;;;;;;;6.95;2.38;;;17.90;58.20;;;;;;5005891;28;20059;-42
2022/04/26 14:51:35;;;;;;;6.20;2.35;;;17.90;56.90;;;;;;5023907;28;20045;-42
2022/04/26 14:54:02;;;;;;;7.22;2.40;;;18.10;56.10;;;;;;5027514;28;20410;-43
2022/04/26 14:56:30;;;;;;;4.90;2.30;;;18.30;55.50;;;;;;5010190;28;20055;-43
2022/04/26 14:59:00;;;;;;;2.53;1.83;;;18.30;54.60;;;;;;5022900;28;20052;-43
2022/04/26 15:01:30;;;;;;;4.18;1.95;;;18.00;55.30;;;;;;5023766;28;20084;-43
2022/04/26 15:03:56;;;;;;;7.60;2.53;;;17.80;56.40;;;;;;5025711;28;20041;-43
2022/04/26 15:06:23;;;;;;;8.00;2.67;;;17.70;56.30;;;;;;5009067;28;20397;-43
2022/04/26 15:11:36;;;;;;;8.80;2.60;;;17.50;56.00;;;;;;5029016;28;20502;-43
2022/04/26 15:16:49;;;;;;;6.47;2.45;;;17.30;56.30;;;;;;5006789;28;20437;-43
2022/04/26 15:19:16;;;;;;;4.90;2.25;;;17.40;56.20;;;;;;5011607;28;20065;-42
2022/04/26 15:21:43;;;;;;;9.27;2.63;;;17.40;56.20;;;;;;5013041;28;20488;-42
2022/04/26 15:24:10;;;;;;;5.90;2.45;;;17.40;57.00;;;;;;5031678;28;20136;-44
2022/04/26 15:26:38;;;;;;;6.45;2.45;;;17.50;56.60;;;;;;5028846;28;20048;-43
2022/04/26 15:29:05;;;;;;;13.23;2.90;;;17.40;57.00;;;;;;5028835;28;20060;-42
2022/04/26 15:31:32;;;;;;;8.45;2.72;;;17.30;57.20;;;;;;5031821;28;20426;-42
2022/04/26 15:33:58;;;;;;;8.75;2.65;;;17.50;57.20;;;;;;5008973;28;20060;-42
2022/04/26 15:36:25;;;;;;;10.05;2.72;;;17.40;56.60;;;;;;5029457;28;20049;-41
2022/04/26 15:38:56;;;;;;;6.63;2.30;;;17.50;57.30;;;;;;5018628;28;20049;-42
2022/04/26 15:41:24;;;;;;;5.25;2.55;;;17.50;58.20;;;;;;5027275;28;20069;-41
2022/04/26 15:43:52;;;;;;;5.88;2.40;;;17.60;57.80;;;;;;5028091;28;20056;-42
2022/04/26 15:46:18;;;;;;;7.10;2.40;;;17.50;56.40;;;;;;5019461;28;20052;-42
2022/04/26 15:48:48;;;;;;;7.55;2.30;;;17.40;57.80;;;;;;5028891;28;20053;-42
2022/04/26 15:51:15;;;;;;;7.63;2.60;;;17.60;58.60;;;;;;5028620;28;20362;-42
2022/04/26 15:53:42;;;;;;;7.28;2.70;;;17.90;58.80;;;;;;5025929;28;20046;-41
2022/04/26 15:56:10;;;;;;;9.65;3.25;;;18.00;58.70;;;;;;5028014;28;20124;-42
2022/04/26 15:58:37;;;;;;;6.88;2.55;;;18.00;57.40;;;;;;5029119;28;20111;-42
2022/04/26 16:01:05;;;;;;;5.60;2.10;;;17.70;56.30;;;;;;5017437;28;20478;-42
2022/04/26 16:03:32;;;;;;;7.10;2.60;;;17.30;57.80;;;;;;5012362;28;20535;-42
2022/04/26 16:05:59;;;;;;;7.40;2.53;;;17.10;56.90;;;;;;5027951;28;20049;-42
2022/04/26 16:08:25;;;;;;;9.27;2.80;;;16.80;57.30;;;;;;5005293;28;20055;-41
2022/04/26 16:21:51;;;;;;;5.68;2.45;;;16.30;59.20;;;;;;5010009;28;20049;-43
2022/04/26 16:24:19;;;;;;;6.55;2.50;;;16.20;59.30;;;;;;5012308;28;20474;-42
2022/04/26 16:26:45;;;;;;;6.68;2.45;;;16.20;60.20;;;;;;5021857;28;20510;-42
2022/04/26 16:29:12;;;;;;;5.68;2.85;;;16.30;60.50;;;;;;5009093;28;20057;-43
2022/04/26 16:31:40;;;;;;;8.75;2.95;;;16.40;60.10;;;;;;5026878;28;20085;-42
2022/04/26 16:34:08;;;;;;;5.47;2.60;;;16.40;59.00;;;;;;5032071;28;20045;-42
2022/04/26 16:36:35;;;;;;;5.38;2.70;;;16.40;60.30;;;;;;5007068;28;20107;-41
2022/04/26 16:39:02;;;;;;;7.40;2.67;;;16.30;59.70;;;;;;5021914;28;20741;-42
2022/04/26 16:41:30;;;;;;;5.97;2.42;;;16.20;59.40;;;;;;5024931;28;20050;-42
2022/04/26 16:43:56;;;;;;;4.95;2.45;;;16.10;59.00;;;;;;5012605;28;20482;-42
2022/04/26 16:46:25;;;;;;;4.85;2.35;;;15.90;58.60;;;;;;5027216;28;20050;-43
2022/04/26 16:48:53;;;;;;;8.02;3.05;;;15.80;59.20;;;;;;5023573;28;20620;-43
2022/04/26 16:51:22;;;;;;;9.45;3.60;;;15.80;59.50;;;;;;5004347;28;20061;-41
2022/04/26 16:53:49;;;;;;;6.95;2.85;;;15.90;59.50;;;;;;5023502;28;20042;-42
2022/04/26 16:56:15;;;;;;;7.65;2.53;;;15.90;60.10;;;;;;5030776;28;20412;-42
2022/04/26 16:58:42;;;;;;;5.68;2.67;;;16.10;61.00;;;;;;5028830;28;20063;-41
2022/04/26 17:01:10;;;;;;;8.68;2.83;;;16.30;60.20;;;;;;5016175;28;20060;-42
2022/04/26 17:03:36;;;;;;;7.32;2.58;;;16.40;60.40;;;;;;5027025;28;20049;-42
2022/04/26 17:06:04;;;;;;;6.10;2.42;;;16.50;60.10;;;;;;5028232;28;20049;-42
2022/04/26 17:08:31;;;;;;;6.63;2.50;;;16.70;59.50;;;;;;5005043;28;20061;-42
2022/04/26 17:11:41;;;;;;;6.60;2.80;;;16.70;59.70;;;;;;5027521;28;20144;-42
2022/04/26 17:13:48;;;;;;;5.30;2.50;;;16.80;59.60;;;;;;5029937;28;20440;-43
2022/04/26 17:16:15;;;;;;;7.10;2.35;;;16.80;59.00;;;;;;5009099;28;20077;-41